South Haven, Michigan
Current Conditions -  °F | °C
As of 7:54 AM on Saturday 25 Oct 2014 (Local Time) from KLWA Reporting Station
Haze Haze  
Wind Chill: 58°   Ceiling: 900
Heat Index: 58°   Visibility: 5mi
Dew Point: 55°   Wind: 10mph
Humidity: 92%   Direction: 260°W
Pressure: 29.88"   Gusts: NA
Location:  42.4°N, 86.27°W
Report Text: KLWA 251154Z AUTO 26009KT 5SM BR OVC009 14/13 A2988 RMK AO2 T01430130
Loading
Personal Weather Stations






























Interactive Weather Map New forecast layout! Learn more

10-Day Weather Forecast

Advertisements
Track Severe Weather on mobile